Time;durP1;ratioP1;P1;durP2;ratioP2;P2;SDS_P1;SDS_P2;PMS_P1;PMS_P2;Temp;Humidity;BMP_temperature;BMP_pressure;BME280_temperature;BME280_humidity;BME280_pressure;Samples;Min_cycle;Max_cycle;Signal;HPM_P1;HPM_P2
2022/02/18 00:01:06;;;;;;;10.00;2.10;;;6.60;99.90;;;;;;5092194;28;20253;-60
2022/02/18 00:03:33;;;;;;;8.63;2.57;;;6.70;1.00;;;;;;5092303;28;20277;-59
2022/02/18 00:06:00;;;;;;;18.20;2.73;;;6.70;99.90;;;;;;5091943;28;20269;-58
2022/02/18 00:08:27;;;;;;;7.73;2.30;;;6.60;1.00;;;;;;5091909;28;20196;-59
2022/02/18 00:10:54;;;;;;;12.40;2.33;;;6.60;99.90;;;;;;5092148;28;20204;-60
2022/02/18 00:13:23;;;;;;;13.98;3.78;;;6.50;99.90;;;;;;5090391;28;20929;-59
2022/02/18 00:15:50;;;;;;;13.93;4.10;;;6.60;99.90;;;;;;5090401;28;20904;-59
2022/02/18 00:18:16;;;;;;;11.75;3.85;;;6.70;99.90;;;;;;5092943;28;20421;-61
2022/02/18 00:20:43;;;;;;;12.98;3.88;;;6.70;99.90;;;;;;5094391;28;20880;-60
2022/02/18 00:23:10;;;;;;;16.38;4.32;;;6.70;99.90;;;;;;5094604;28;20463;-58
2022/02/18 00:25:38;;;;;;;14.80;4.45;;;6.80;99.90;;;;;;5094257;28;20416;-62
2022/02/18 00:28:05;;;;;;;16.00;3.95;;;6.80;99.90;;;;;;5094478;28;20421;-61
2022/02/18 00:30:34;;;;;;;16.02;4.50;;;6.80;58.90;;;;;;5094851;28;20418;-62
2022/02/18 00:33:01;;;;;;;17.63;4.65;;;6.80;99.90;;;;;;5094520;28;20409;-62
2022/02/18 00:35:27;;;;;;;16.42;4.63;;;6.80;1.00;;;;;;5094810;28;20410;-62
2022/02/18 00:37:55;;;;;;;15.75;4.25;;;6.80;51.00;;;;;;5094418;28;20413;-61
2022/02/18 00:40:23;;;;;;;16.60;5.00;;;6.70;99.90;;;;;;5094845;28;20469;-59
2022/02/18 00:42:50;;;;;;;16.70;4.63;;;6.70;99.90;;;;;;5094813;28;20413;-58
2022/02/18 00:45:16;;;;;;;15.60;4.55;;;6.60;1.00;;;;;;5094324;28;20785;-60
2022/02/18 00:47:44;;;;;;;16.10;4.90;;;6.70;99.90;;;;;;5094095;28;20505;-59
2022/02/18 00:50:11;;;;;;;15.32;4.30;;;6.70;99.90;;;;;;5094027;28;20410;-60
2022/02/18 00:52:39;;;;;;;16.97;5.13;;;6.70;99.90;;;;;;5093873;28;20414;-58
2022/02/18 00:55:07;;;;;;;20.70;4.97;;;6.70;99.90;;;;;;5093569;28;20417;-56
2022/02/18 00:57:34;;;;;;;16.57;3.57;;;6.70;99.90;;;;;;5094988;28;20200;-56
2022/02/18 01:00:00;;;;;;;10.03;3.07;;;6.60;1.00;;;;;;5095197;28;20228;-58
2022/02/18 01:02:27;;;;;;;12.20;3.70;;;6.60;1.00;;;;;;5095050;28;20208;-58
2022/02/18 01:04:55;;;;;;;14.43;3.30;;;6.40;1.00;;;;;;5094981;28;20273;-57
2022/02/18 01:07:23;;;;;;;11.83;2.50;;;6.40;1.00;;;;;;5094412;28;20273;-59
2022/02/18 01:09:50;;;;;;;13.77;3.27;;;6.30;13.60;;;;;;5094627;28;20208;-58
2022/02/18 01:12:16;;;;;;;12.80;2.90;;;6.30;34.80;;;;;;5095035;28;20246;-58
2022/02/18 01:14:43;;;;;;;18.75;4.72;;;6.20;74.20;;;;;;5093402;28;20427;-60
2022/02/18 01:17:10;;;;;;;19.73;4.72;;;6.20;99.90;;;;;;5093462;28;20410;-60
2022/02/18 01:19:37;;;;;;;18.20;4.27;;;6.30;99.90;;;;;;5093267;28;20467;-60
2022/02/18 01:22:05;;;;;;;19.50;4.72;;;6.30;99.90;;;;;;5093447;28;20475;-58
2022/02/18 01:24:33;;;;;;;20.35;4.20;;;6.40;96.10;;;;;;5093328;28;20467;-61
2022/02/18 01:27:00;;;;;;;21.95;4.32;;;6.50;93.00;;;;;;5093451;28;20768;-61
2022/02/18 01:29:27;;;;;;;16.80;3.75;;;6.50;68.80;;;;;;5092663;28;20402;-60
2022/02/18 01:31:53;;;;;;;15.90;3.97;;;6.60;44.80;;;;;;5093094;28;20414;-60
2022/02/18 01:34:20;;;;;;;18.88;4.53;;;6.60;8.40;;;;;;5093032;28;20409;-59
2022/02/18 01:36:46;;;;;;;17.85;4.20;;;6.60;7.80;;;;;;5093115;28;20815;-60
2022/02/18 01:39:15;;;;;;;18.20;4.10;;;6.70;1.00;;;;;;5093365;28;20422;-60
2022/02/18 01:41:42;;;;;;;20.02;4.22;;;6.60;1.00;;;;;;5093024;28;20884;-60
2022/02/18 01:44:09;;;;;;;17.27;4.63;;;6.60;1.00;;;;;;5092810;28;20417;-59
2022/02/18 01:46:36;;;;;;;17.83;4.13;;;6.60;1.00;;;;;;5092893;28;20406;-62
2022/02/18 01:49:02;;;;;;;17.73;3.78;;;6.60;1.00;;;;;;5092756;28;20831;-59
2022/02/18 01:51:29;;;;;;;16.83;4.10;;;6.70;1.00;;;;;;5093115;28;20423;-57
2022/02/18 01:53:56;;;;;;;15.60;4.13;;;6.70;1.00;;;;;;5092871;28;20418;-60
2022/02/18 01:56:24;;;;;;;22.30;4.53;;;6.70;1.00;;;;;;5092540;28;20493;-59
2022/02/18 01:58:51;;;;;;;19.40;4.15;;;6.70;1.00;;;;;;5092791;28;20823;-59
2022/02/18 02:01:18;;;;;;;18.63;3.92;;;6.70;1.00;;;;;;5092491;28;20413;-59
2022/02/18 02:03:44;;;;;;;18.38;3.65;;;6.70;1.00;;;;;;5092437;28;20908;-59
2022/02/18 02:06:14;;;;;;;19.30;4.30;;;6.70;1.00;;;;;;5092558;28;20405;-60
2022/02/18 02:08:41;;;;;;;18.55;4.53;;;6.60;1.00;;;;;;5092677;28;20463;-60
2022/02/18 02:11:07;;;;;;;17.27;4.18;;;6.70;1.00;;;;;;5092889;28;20776;-59
2022/02/18 02:13:37;;;;;;;16.83;3.90;;;6.70;1.00;;;;;;5092638;28;20409;-57
2022/02/18 02:16:04;;;;;;;21.15;3.75;;;6.80;1.00;;;;;;5092288;28;20433;-59
2022/02/18 02:18:31;;;;;;;18.80;4.00;;;6.70;1.00;;;;;;5091833;28;20881;-59
2022/02/18 02:20:58;;;;;;;23.33;3.92;;;6.80;1.00;;;;;;5092638;28;20467;-58
2022/02/18 02:23:26;;;;;;;18.80;3.95;;;6.80;1.00;;;;;;5091931;28;20509;-58
2022/02/18 02:25:53;;;;;;;19.20;4.50;;;6.80;1.00;;;;;;5092022;28;20417;-62
2022/02/18 02:28:20;;;;;;;16.20;4.00;;;6.80;99.90;;;;;;5091934;28;20807;-60
2022/02/18 02:30:47;;;;;;;17.57;3.90;;;6.80;99.90;;;;;;5091829;28;20459;-61
2022/02/18 02:33:13;;;;;;;18.02;4.03;;;6.70;99.90;;;;;;5092213;28;20467;-60
2022/02/18 02:35:40;;;;;;;21.10;4.18;;;6.80;99.90;;;;;;5091822;28;20414;-61
2022/02/18 02:38:07;;;;;;;17.90;3.70;;;6.80;99.90;;;;;;5092172;28;20476;-62
2022/02/18 02:40:35;;;;;;;17.27;3.92;;;6.80;99.90;;;;;;5091003;28;20790;-61
2022/02/18 02:43:03;;;;;;;19.17;4.38;;;6.80;99.90;;;;;;5091236;28;20459;-60
2022/02/18 02:45:29;;;;;;;22.88;3.58;;;6.70;99.90;;;;;;5092450;28;20457;-59
2022/02/18 02:47:56;;;;;;;18.13;3.50;;;6.80;99.90;;;;;;5092421;28;20409;-61
2022/02/18 02:50:23;;;;;;;18.08;3.97;;;6.80;99.90;;;;;;5092037;28;20425;-61
2022/02/18 02:52:50;;;;;;;16.95;3.50;;;6.80;99.90;;;;;;5091688;28;20406;-58
2022/02/18 02:55:16;;;;;;;16.27;3.67;;;6.80;99.90;;;;;;5091628;28;20479;-58
2022/02/18 02:57:45;;;;;;;22.23;3.85;;;6.80;99.90;;;;;;5091354;28;20510;-59
2022/02/18 03:00:13;;;;;;;17.00;3.30;;;6.80;99.90;;;;;;5091648;28;20762;-61
2022/02/18 03:02:40;;;;;;;14.25;3.60;;;6.80;99.90;;;;;;5091600;28;20962;-59
2022/02/18 03:05:08;;;;;;;18.95;3.58;;;6.80;99.90;;;;;;5091202;28;20418;-61
2022/02/18 03:07:35;;;;;;;19.85;3.50;;;6.90;99.90;;;;;;5091392;28;20754;-60
2022/02/18 03:10:02;;;;;;;19.27;3.80;;;7.00;98.70;;;;;;5091389;28;20859;-61
2022/02/18 03:12:29;;;;;;;17.70;3.55;;;6.80;99.90;;;;;;5091309;28;20467;-59
2022/02/18 03:14:57;;;;;;;22.83;3.92;;;6.80;99.90;;;;;;5091460;28;20459;-60
2022/02/18 03:17:25;;;;;;;14.38;3.42;;;6.70;99.90;;;;;;5091070;28;20421;-59
2022/02/18 03:19:52;;;;;;;18.25;3.45;;;6.70;99.90;;;;;;5091354;28;20463;-61
2022/02/18 03:22:19;;;;;;;20.92;3.65;;;6.70;99.90;;;;;;5091032;28;20406;-60
2022/02/18 03:24:46;;;;;;;15.75;3.50;;;6.70;99.90;;;;;;5091033;28;20413;-59
2022/02/18 03:27:13;;;;;;;21.92;4.05;;;6.80;99.90;;;;;;5090994;28;20414;-61
2022/02/18 03:29:40;;;;;;;21.45;3.85;;;6.60;99.90;;;;;;5091151;28;20467;-61
2022/02/18 03:32:09;;;;;;;21.15;3.95;;;6.70;1.00;;;;;;5091108;28;20409;-60
2022/02/18 03:34:36;;;;;;;23.05;4.03;;;6.70;1.00;;;;;;5090913;28;20440;-61
2022/02/18 03:37:03;;;;;;;19.20;3.50;;;6.70;1.00;;;;;;5090952;28;20463;-61
2022/02/18 03:39:30;;;;;;;22.13;4.70;;;6.80;1.00;;;;;;5090744;28;20430;-59
2022/02/18 03:41:57;;;;;;;22.40;4.55;;;6.70;1.00;;;;;;5090960;28;20893;-61
2022/02/18 03:44:23;;;;;;;20.25;4.38;;;6.80;1.00;;;;;;5091115;28;20410;-57
2022/02/18 03:46:50;;;;;;;23.73;4.30;;;6.70;1.00;;;;;;5090610;28;20443;-61
2022/02/18 03:49:18;;;;;;;12.70;3.20;;;6.70;1.00;;;;;;5091957;28;20268;-59
2022/02/18 03:51:44;;;;;;;18.93;4.00;;;6.70;1.00;;;;;;5091878;28;20792;-60
2022/02/18 03:54:11;;;;;;;13.80;2.77;;;6.70;1.00;;;;;;5091958;28;20648;-61
2022/02/18 03:56:38;;;;;;;13.47;3.00;;;6.60;1.00;;;;;;5091978;28;20208;-61
2022/02/18 03:59:05;;;;;;;18.60;3.20;;;6.60;1.00;;;;;;5093002;28;20212;-61
2022/02/18 04:01:31;;;;;;;20.83;3.40;;;6.60;1.00;;;;;;5092486;28;20234;-60
2022/02/18 04:03:58;;;;;;;20.73;3.33;;;6.60;1.00;;;;;;5091645;28;20228;-60
2022/02/18 04:06:26;;;;;;;14.97;3.03;;;6.60;1.00;;;;;;5091491;28;20204;-59
2022/02/18 04:08:53;;;;;;;19.00;3.67;;;6.70;1.00;;;;;;5091918;28;20204;-58
2022/02/18 04:11:20;;;;;;;22.07;3.27;;;6.70;1.00;;;;;;5091910;28;20553;-61
2022/02/18 04:13:46;;;;;;;20.23;3.33;;;6.70;1.00;;;;;;5092040;28;20227;-61
2022/02/18 04:16:13;;;;;;;18.53;2.57;;;6.70;1.00;;;;;;5091631;28;20216;-61
2022/02/18 04:18:40;;;;;;;19.07;3.30;;;6.70;1.00;;;;;;5091667;28;20589;-61
2022/02/18 04:21:06;;;;;;;17.73;3.20;;;6.70;1.00;;;;;;5091430;28;20311;-60
2022/02/18 04:23:35;;;;;;;16.27;3.60;;;6.70;1.00;;;;;;5091842;28;20265;-60
2022/02/18 04:26:02;;;;;;;15.07;3.03;;;6.80;1.00;;;;;;5091618;28;20204;-61
2022/02/18 04:28:28;;;;;;;14.80;2.77;;;6.80;99.90;;;;;;5091794;28;20200;-61
2022/02/18 04:30:55;;;;;;;22.63;3.33;;;6.80;99.90;;;;;;5092003;28;20212;-61
2022/02/18 04:33:22;;;;;;;14.87;3.60;;;6.80;99.90;;;;;;5091349;28;20228;-59
2022/02/18 04:35:49;;;;;;;16.20;3.00;;;6.80;99.90;;;;;;5091745;28;20215;-60
2022/02/18 04:38:15;;;;;;;18.50;2.40;;;6.80;99.90;;;;;;5091387;28;20212;-60
2022/02/18 04:40:43;;;;;;;19.67;2.87;;;6.80;99.90;;;;;;5091556;28;20274;-61
2022/02/18 04:43:10;;;;;;;19.63;3.57;;;6.80;99.90;;;;;;5091472;28;20258;-61
2022/02/18 04:45:37;;;;;;;18.60;2.93;;;6.80;99.90;;;;;;5091482;28;20201;-61
2022/02/18 04:48:04;;;;;;;20.13;2.80;;;6.80;99.90;;;;;;5091070;28;20281;-60
2022/02/18 04:50:30;;;;;;;13.43;2.17;;;6.90;99.90;;;;;;5091471;28;20201;-59
2022/02/18 04:52:57;;;;;;;16.17;3.03;;;6.80;68.20;;;;;;5091435;28;20204;-60
2022/02/18 04:55:24;;;;;;;10.90;2.70;;;6.90;12.30;;;;;;5091212;28;20208;-60
2022/02/18 04:57:52;;;;;;;11.10;2.23;;;6.90;1.00;;;;;;5091336;28;20205;-61
2022/02/18 05:00:20;;;;;;;10.67;2.23;;;6.90;1.00;;;;;;5091302;28;20232;-61
2022/02/18 05:02:47;;;;;;;17.47;2.80;;;6.90;99.90;;;;;;5090921;28;20211;-61
2022/02/18 05:05:13;;;;;;;;;;;6.90;99.90;;;;;;5093945;28;20051;-60
2022/02/18 05:07:40;;;;;;;20.58;3.80;;;6.90;99.90;;;;;;5093567;28;20407;-59
2022/02/18 05:10:08;;;;;;;17.40;3.65;;;6.90;99.90;;;;;;5093732;28;20927;-60
2022/02/18 05:12:35;;;;;;;14.30;3.30;;;7.00;33.10;;;;;;5093694;28;20463;-61
2022/02/18 05:15:03;;;;;;;21.25;4.18;;;7.10;99.90;;;;;;5093482;28;20826;-60
2022/02/18 05:17:30;;;;;;;18.52;3.70;;;7.10;1.00;;;;;;5093642;28;20475;-60
2022/02/18 05:19:58;;;;;;;16.83;3.50;;;7.10;99.90;;;;;;5093460;28;20513;-59
2022/02/18 05:22:24;;;;;;;19.88;4.15;;;7.10;99.90;;;;;;5093897;28;20417;-59
2022/02/18 05:24:51;;;;;;;18.38;3.45;;;7.20;99.90;;;;;;5093163;28;20406;-60
2022/02/18 05:27:18;;;;;;;17.42;3.63;;;7.10;99.90;;;;;;5093399;28;20811;-60
2022/02/18 05:29:44;;;;;;;19.83;3.70;;;7.10;65.30;;;;;;5093110;28;20830;-60
2022/02/18 05:32:12;;;;;;;14.80;3.53;;;7.20;99.90;;;;;;5093418;28;20413;-61
2022/02/18 05:34:39;;;;;;;17.38;3.58;;;7.20;99.90;;;;;;5093189;28;20830;-61
2022/02/18 05:37:06;;;;;;;17.25;3.50;;;7.30;1.00;;;;;;5092986;28;20410;-60
2022/02/18 05:39:33;;;;;;;18.55;3.30;;;7.30;99.90;;;;;;5093080;28;20896;-60
2022/02/18 05:41:59;;;;;;;18.95;3.70;;;7.30;1.00;;;;;;5092945;28;20432;-60
2022/02/18 05:44:31;;;;;;;15.25;3.58;;;7.30;1.00;;;;;;5092879;28;20422;-61
2022/02/18 05:46:57;;;;;;;19.05;3.20;;;7.30;99.90;;;;;;5093255;28;20900;-59
2022/02/18 05:49:25;;;;;;;15.07;3.10;;;7.40;99.90;;;;;;5091678;28;20842;-62
2022/02/18 05:51:52;;;;;;;16.02;3.63;;;7.40;1.00;;;;;;5092750;28;20410;-60
2022/02/18 05:54:19;;;;;;;17.60;3.30;;;7.40;1.00;;;;;;5092493;28;20471;-60
2022/02/18 05:56:47;;;;;;;12.23;2.50;;;7.50;99.90;;;;;;5093653;28;20269;-59
2022/02/18 05:59:13;;;;;;;9.13;2.27;;;7.50;99.90;;;;;;5093672;28;20302;-59
2022/02/18 06:01:43;;;;;;;17.40;2.93;;;7.40;99.90;;;;;;5093806;28;20232;-60
2022/02/18 06:04:09;;;;;;;13.37;2.60;;;7.30;99.90;;;;;;5092551;28;20319;-59
2022/02/18 06:06:37;;;;;;;11.87;2.23;;;7.20;99.90;;;;;;5093350;28;20204;-60
2022/02/18 06:09:04;;;;;;;17.40;2.80;;;7.20;99.90;;;;;;5093818;28;20212;-61
2022/02/18 06:11:31;;;;;;;12.30;2.07;;;7.30;99.90;;;;;;5093341;28;20200;-61
2022/02/18 06:13:57;;;;;;;10.87;2.20;;;7.30;1.00;;;;;;5094092;28;20224;-61
2022/02/18 06:16:24;;;;;;;10.27;2.23;;;7.30;99.90;;;;;;5093487;28;20279;-61
2022/02/18 06:18:51;;;;;;;17.63;2.60;;;7.30;99.90;;;;;;5093741;28;20201;-60
2022/02/18 06:21:18;;;;;;;9.93;2.23;;;7.30;37.40;;;;;;5093677;28;20655;-60
2022/02/18 06:23:46;;;;;;;10.77;1.83;;;7.30;38.90;;;;;;5093279;28;20227;-61
2022/02/18 06:26:13;;;;;;;9.00;1.97;;;7.20;99.90;;;;;;5093188;28;20265;-61
2022/02/18 06:28:40;;;;;;;13.77;2.23;;;7.20;99.90;;;;;;5093688;28;20201;-63
2022/02/18 06:31:07;;;;;;;14.77;2.40;;;7.10;99.90;;;;;;5076366;28;20206;-63
2022/02/18 06:33:34;;;;;;;11.13;2.00;;;7.00;99.90;;;;;;5072725;28;20225;-64
2022/02/18 06:36:02;;;;;;;7.90;2.00;;;6.90;1.00;;;;;;5072427;28;20216;-63
2022/02/18 06:38:29;;;;;;;10.17;2.50;;;6.90;1.00;;;;;;5086241;28;20204;-63
2022/02/18 06:40:57;;;;;;;13.27;2.37;;;6.90;1.00;;;;;;5092324;28;20229;-61
2022/02/18 06:43:23;;;;;;;11.10;1.90;;;6.90;99.90;;;;;;5093004;28;20331;-61
2022/02/18 06:45:50;;;;;;;15.23;2.93;;;6.90;1.00;;;;;;5092884;28;20211;-59
2022/02/18 06:48:17;;;;;;;15.80;2.60;;;6.80;99.90;;;;;;5092457;28;20205;-62
2022/02/18 06:50:43;;;;;;;11.93;2.40;;;6.80;1.00;;;;;;5092443;28;20229;-60
2022/02/18 06:53:10;;;;;;;9.47;2.03;;;6.80;99.90;;;;;;5092148;28;20652;-61
2022/02/18 06:55:37;;;;;;;13.40;2.40;;;6.70;1.00;;;;;;5092645;28;20208;-62
2022/02/18 06:58:05;;;;;;;11.20;2.50;;;6.80;99.90;;;;;;5092668;28;20246;-62
2022/02/18 07:00:32;;;;;;;19.05;3.28;;;6.80;99.90;;;;;;5090780;28;20441;-61
2022/02/18 07:02:59;;;;;;;14.50;3.13;;;6.80;99.90;;;;;;5091131;28;20876;-62
2022/02/18 07:05:26;;;;;;;20.25;3.50;;;6.80;99.90;;;;;;5090934;28;20835;-61
2022/02/18 07:07:52;;;;;;;16.90;3.20;;;6.80;99.90;;;;;;5090809;28;20461;-61
2022/02/18 07:10:19;;;;;;;16.75;3.40;;;6.80;1.00;;;;;;5090926;28;20803;-62
2022/02/18 07:12:45;;;;;;;18.42;3.58;;;6.70;1.00;;;;;;5090939;28;20429;-62
2022/02/18 07:15:14;;;;;;;18.88;3.67;;;6.70;1.00;;;;;;5091047;28;20762;-63
2022/02/18 07:17:40;;;;;;;19.13;3.25;;;6.70;38.60;;;;;;5090532;28;20410;-61
2022/02/18 07:20:10;;;;;;;15.37;3.20;;;6.70;82.40;;;;;;5090391;28;20835;-62
2022/02/18 07:22:37;;;;;;;15.80;3.10;;;6.80;99.90;;;;;;5092170;28;20839;-62
2022/02/18 07:25:05;;;;;;;14.60;2.70;;;6.80;99.90;;;;;;5091921;28;20232;-61
2022/02/18 07:27:33;;;;;;;13.93;2.40;;;6.70;99.90;;;;;;5089499;28;20265;-64
2022/02/18 07:30:00;;;;;;;12.03;2.67;;;6.60;99.90;;;;;;5091304;28;20231;-61
2022/02/18 07:32:28;;;;;;;20.83;3.30;;;6.60;99.90;;;;;;5090645;28;20948;-64
2022/02/18 07:34:55;;;;;;;14.50;3.42;;;6.60;99.90;;;;;;5090025;28;20422;-64
2022/02/18 07:37:22;;;;;;;17.67;3.70;;;6.70;99.90;;;;;;5090392;28;20409;-62
2022/02/18 07:39:49;;;;;;;19.23;3.97;;;6.70;99.90;;;;;;5090463;28;20406;-62
2022/02/18 07:42:15;;;;;;;16.77;3.83;;;6.80;99.90;;;;;;5090105;28;20422;-62
2022/02/18 07:44:42;;;;;;;18.40;3.78;;;6.80;99.90;;;;;;5091024;28;20445;-61
2022/02/18 07:47:09;;;;;;;20.77;4.07;;;6.70;99.90;;;;;;5090550;28;20416;-61
2022/02/18 07:49:39;;;;;;;25.13;4.05;;;6.70;99.90;;;;;;5091615;28;20487;-61
2022/02/18 07:52:07;;;;;;;17.08;4.00;;;6.80;99.90;;;;;;5091604;28;20453;-62
2022/02/18 07:54:34;;;;;;;21.38;3.58;;;6.80;99.90;;;;;;5090656;28;20501;-59
2022/02/18 07:57:01;;;;;;;20.77;4.20;;;6.90;99.90;;;;;;5090084;28;20501;-60
2022/02/18 07:59:27;;;;;;;17.58;3.22;;;6.90;99.90;;;;;;5090030;28;20957;-60
2022/02/18 08:01:54;;;;;;;21.20;4.00;;;7.00;99.90;;;;;;5089859;28;20426;-62
2022/02/18 08:04:21;;;;;;;18.40;3.45;;;7.10;99.90;;;;;;5089886;28;21066;-61
2022/02/18 08:06:49;;;;;;;18.23;3.83;;;7.10;99.90;;;;;;5089976;28;20414;-57
2022/02/18 08:09:16;;;;;;;19.27;3.93;;;7.20;99.90;;;;;;5090291;28;20410;-60
2022/02/18 08:11:43;;;;;;;18.10;4.00;;;7.30;99.90;;;;;;5089167;28;21091;-60
2022/02/18 08:14:09;;;;;;;15.00;3.97;;;7.40;99.90;;;;;;5090279;28;20414;-60
2022/02/18 08:16:36;;;;;;;18.42;3.55;;;7.50;99.90;;;;;;5089983;28;20443;-60
2022/02/18 08:19:03;;;;;;;;;;;7.50;99.90;;;;;;5091774;28;20051;-61
2022/02/18 08:21:29;;;;;;;10.73;2.13;;;7.70;99.90;;;;;;5091179;28;20210;-61
2022/02/18 08:23:57;;;;;;;10.03;1.97;;;7.60;99.90;;;;;;5091550;28;20224;-62
2022/02/18 08:26:25;;;;;;;14.03;2.97;;;7.60;99.90;;;;;;5090765;28;20273;-62
2022/02/18 08:28:52;;;;;;;13.20;2.77;;;7.60;99.90;;;;;;5091118;28;20307;-62
2022/02/18 08:31:19;;;;;;;17.40;2.93;;;7.60;99.90;;;;;;5090975;28;20208;-61
2022/02/18 08:33:46;;;;;;;11.77;2.50;;;7.60;99.90;;;;;;5091143;28;20269;-59
2022/02/18 08:36:13;;;;;;;11.50;2.17;;;7.60;99.90;;;;;;5090982;28;20220;-62
2022/02/18 08:38:40;;;;;;;10.40;1.93;;;7.70;99.90;;;;;;5091069;28;20274;-62
2022/02/18 08:41:09;;;;;;;7.17;1.80;;;7.70;99.90;;;;;;5094245;28;20281;-63
2022/02/18 08:43:36;;;;;;;15.83;2.73;;;7.80;99.90;;;;;;5094507;28;20260;-63
2022/02/18 08:46:03;;;;;;;11.07;2.07;;;7.80;99.90;;;;;;5095145;28;20261;-62
2022/02/18 08:48:29;;;;;;;9.83;2.20;;;7.90;99.90;;;;;;5094852;28;20233;-63
2022/02/18 08:50:57;;;;;;;6.80;1.87;;;8.00;99.90;;;;;;5094712;28;20201;-62
2022/02/18 08:53:24;;;;;;;11.53;2.23;;;8.00;99.90;;;;;;5094681;28;20234;-62
2022/02/18 08:55:51;;;;;;;9.27;2.60;;;8.10;99.90;;;;;;5094649;28;20238;-61
2022/02/18 08:58:19;;;;;;;7.57;2.20;;;8.10;99.90;;;;;;5094727;28;20204;-61
2022/02/18 09:00:46;;;;;;;10.90;2.20;;;8.20;99.90;;;;;;5094468;28;20215;-65
2022/02/18 09:03:12;;;;;;;12.47;2.17;;;8.30;99.90;;;;;;5094845;28;20213;-63
2022/02/18 09:05:39;;;;;;;7.90;1.87;;;8.30;99.90;;;;;;5094294;28;20208;-64
2022/02/18 09:08:06;;;;;;;10.63;1.90;;;8.30;99.90;;;;;;5094336;28;20887;-63
2022/02/18 09:10:33;;;;;;;6.57;1.70;;;8.40;99.90;;;;;;5093923;28;20211;-63
2022/02/18 09:12:59;;;;;;;8.87;1.97;;;8.40;99.90;;;;;;5094501;28;20206;-63
2022/02/18 09:15:27;;;;;;;8.57;2.47;;;8.40;99.90;;;;;;5094676;28;20673;-62
2022/02/18 09:17:54;;;;;;;10.50;2.10;;;8.40;99.90;;;;;;5094436;28;20217;-63
2022/02/18 09:20:21;;;;;;;7.93;1.67;;;8.40;99.90;;;;;;5094382;28;20208;-63
2022/02/18 09:22:47;;;;;;;7.07;1.40;;;8.50;99.90;;;;;;5094299;28;20228;-62
2022/02/18 09:25:14;;;;;;;8.60;1.83;;;8.50;99.90;;;;;;5093565;28;20225;-64
2022/02/18 09:27:41;;;;;;;11.93;2.03;;;8.60;99.90;;;;;;5093952;28;20266;-64
2022/02/18 09:30:10;;;;;;;7.27;1.40;;;8.60;99.90;;;;;;5093381;28;20690;-63
2022/02/18 09:32:38;;;;;;;5.30;1.53;;;8.60;99.90;;;;;;5094093;28;20205;-65
2022/02/18 09:35:05;;;;;;;8.50;2.00;;;8.70;99.90;;;;;;5093986;28;20229;-63
2022/02/18 09:37:32;;;;;;;8.03;2.00;;;8.70;99.90;;;;;;5093772;28;20209;-62
2022/02/18 09:39:59;;;;;;;6.50;1.70;;;8.70;99.90;;;;;;5094314;28;20210;-63
2022/02/18 09:42:27;;;;;;;6.43;1.30;;;8.80;99.90;;;;;;5093914;28;20228;-63
2022/02/18 09:44:56;;;;;;;9.73;1.67;;;8.90;99.90;;;;;;5094024;28;20604;-62
2022/02/18 09:47:23;;;;;;;7.17;1.87;;;8.90;99.90;;;;;;5093882;28;20235;-62
2022/02/18 09:49:53;;;;;;;4.13;1.13;;;8.90;99.90;;;;;;5093910;28;20223;-63
2022/02/18 09:52:21;;;;;;;5.40;1.70;;;8.90;99.90;;;;;;5093825;28;20664;-62
2022/02/18 09:54:48;;;;;;;3.43;1.40;;;8.90;99.90;;;;;;5093154;28;20702;-61
2022/02/18 09:57:16;;;;;;;4.82;1.73;;;8.90;99.90;;;;;;5092307;28;20418;-63
2022/02/18 09:59:45;;;;;;;6.30;1.70;;;9.00;99.90;;;;;;5092250;28;21047;-63
2022/02/18 10:02:13;;;;;;;6.15;1.70;;;9.10;99.90;;;;;;5092220;28;20475;-62
2022/02/18 10:04:39;;;;;;;6.10;1.83;;;9.10;99.90;;;;;;5092488;28;20417;-61
2022/02/18 10:07:08;;;;;;;4.72;1.80;;;9.20;99.90;;;;;;5091978;28;20410;-62
2022/02/18 10:09:42;;;;;;;6.68;2.08;;;9.10;99.90;;;;;;5091933;28;20907;-62
2022/02/18 10:12:10;;;;;;;6.35;1.42;;;9.20;99.90;;;;;;5091808;28;20414;-62
2022/02/18 10:14:53;;;;;;;6.80;1.30;;;9.30;99.90;;;;;;5092050;28;20409;-60
2022/02/18 10:17:21;;;;;;;5.00;1.50;;;9.30;99.90;;;;;;5091698;28;20488;-61
2022/02/18 10:19:52;;;;;;;7.68;1.58;;;9.40;99.90;;;;;;5091663;28;20766;-60
2022/02/18 10:22:28;;;;;;;4.70;1.60;;;9.40;99.90;;;;;;5091946;28;20431;-62
2022/02/18 10:24:55;;;;;;;5.55;1.48;;;9.50;99.90;;;;;;5091185;28;20467;-61
2022/02/18 10:27:23;;;;;;;5.05;1.50;;;9.50;99.90;;;;;;5091627;28;20467;-62
2022/02/18 10:29:58;;;;;;;3.95;1.40;;;9.60;99.90;;;;;;5091251;28;21090;-62
2022/02/18 10:32:25;;;;;;;6.40;1.48;;;9.70;99.90;;;;;;5091939;28;20433;-60
2022/02/18 10:34:52;;;;;;;4.23;1.50;;;9.80;99.90;;;;;;5091691;28;20457;-57
2022/02/18 10:37:20;;;;;;;6.00;1.30;;;9.80;99.90;;;;;;5091304;28;20437;-61
2022/02/18 10:39:49;;;;;;;4.53;1.38;;;9.80;99.90;;;;;;5091308;28;20492;-62
2022/02/18 10:42:16;;;;;;;4.90;1.50;;;9.90;99.90;;;;;;5090918;28;20433;-62
2022/02/18 10:44:43;;;;;;;6.05;1.27;;;9.90;99.90;;;;;;5091593;28;20406;-62
2022/02/18 10:47:21;;;;;;;4.80;1.27;;;9.90;99.90;;;;;;5091280;28;20937;-62
2022/02/18 10:49:48;;;;;;;3.60;1.15;;;10.00;99.90;;;;;;5090731;28;20414;-62
2022/02/18 10:52:17;;;;;;;4.30;1.10;;;10.00;99.90;;;;;;5091431;28;20418;-61
2022/02/18 10:54:45;;;;;;;3.40;1.30;;;10.20;99.90;;;;;;5090868;28;20425;-61
2022/02/18 10:57:14;;;;;;;3.10;1.10;;;10.20;99.90;;;;;;5090995;28;20448;-62
2022/02/18 10:59:41;;;;;;;2.60;1.10;;;10.20;99.90;;;;;;5090947;28;20965;-64
2022/02/18 11:02:09;;;;;;;3.13;1.15;;;10.20;99.90;;;;;;5089624;28;20473;-63
2022/02/18 11:04:36;;;;;;;3.70;1.13;;;10.20;99.90;;;;;;5091025;28;20413;-62
2022/02/18 11:07:10;;;;;;;4.03;1.00;;;10.10;99.90;;;;;;5090610;28;20409;-62
2022/02/18 11:09:37;;;;;;;2.35;1.20;;;10.20;99.90;;;;;;5090629;28;20421;-62
2022/02/18 11:12:07;;;;;;;3.50;1.20;;;10.20;99.90;;;;;;5090877;28;20417;-64
2022/02/18 11:14:36;;;;;;;3.22;1.55;;;10.20;99.90;;;;;;5090785;28;20459;-64
2022/02/18 11:17:04;;;;;;;4.97;2.30;;;10.30;99.90;;;;;;5090708;28;20454;-64
2022/02/18 11:19:31;;;;;;;2.33;0.90;;;10.30;99.90;;;;;;5090571;28;20420;-62
2022/02/18 11:21:58;;;;;;;1.85;1.13;;;10.30;99.90;;;;;;5090233;28;20425;-62
2022/02/18 11:24:26;;;;;;;3.70;1.15;;;10.40;99.90;;;;;;5090662;28;20445;-64
2022/02/18 11:26:53;;;;;;;3.22;1.20;;;10.40;99.90;;;;;;5090518;28;20467;-63
2022/02/18 11:29:20;;;;;;;2.00;1.00;;;10.40;99.90;;;;;;5091183;28;20503;-64
2022/02/18 11:31:52;;;;;;;4.40;1.75;;;10.50;99.90;;;;;;5091447;28;20402;-62
2022/02/18 11:34:44;;;;;;;3.43;1.63;;;10.50;99.90;;;;;;5091530;28;20409;-64
2022/02/18 11:37:42;;;;;;;2.97;1.60;;;10.50;99.90;;;;;;5090161;28;20530;-62
2022/02/18 11:40:36;;;;;;;3.05;1.17;;;10.60;99.90;;;;;;5089910;28;20474;-63
2022/02/18 11:43:25;;;;;;;3.25;1.30;;;10.60;99.90;;;;;;5063931;28;20440;-62
2022/02/18 11:46:01;;;;;;;2.83;1.17;;;10.50;99.90;;;;;;5090202;28;20432;-62
2022/02/18 11:48:43;;;;;;;3.55;1.10;;;10.60;99.90;;;;;;5089805;28;20417;-69
2022/02/18 11:51:11;;;;;;;2.22;0.90;;;10.70;99.90;;;;;;5090084;28;20498;-66
2022/02/18 11:53:39;;;;;;;2.17;1.05;;;10.70;99.90;;;;;;5090277;28;20901;-67
2022/02/18 11:56:06;;;;;;;2.50;1.10;;;10.70;99.90;;;;;;5089858;28;20413;-66
2022/02/18 11:58:52;;;;;;;2.15;0.95;;;10.80;99.90;;;;;;5090309;28;20497;-66
2022/02/18 12:01:19;;;;;;;3.42;1.05;;;10.80;99.90;;;;;;5089524;28;20417;-67
2022/02/18 12:04:19;;;;;;;2.57;0.73;;;10.80;99.90;;;;;;5090164;28;20424;-69
2022/02/18 12:07:34;;;;;;;1.60;0.93;;;11.00;99.90;;;;;;5085407;28;20920;-69
2022/02/18 12:10:09;;;;;;;1.53;0.83;;;11.00;99.90;;;;;;5090057;28;20451;-69
2022/02/18 12:12:38;;;;;;;2.77;0.80;;;11.20;99.90;;;;;;5090146;28;20406;-69
2022/02/18 12:15:14;;;;;;;2.30;1.00;;;11.20;99.90;;;;;;5094656;28;20413;-70
2022/02/18 12:17:43;;;;;;;1.80;0.68;;;11.30;99.90;;;;;;5094419;28;21084;-69
2022/02/18 12:20:12;;;;;;;1.95;0.82;;;11.30;99.90;;;;;;5096273;28;20410;-71
2022/02/18 12:22:41;;;;;;;1.30;0.77;;;11.40;99.90;;;;;;5097917;28;20994;-71
2022/02/18 12:25:09;;;;;;;2.45;0.77;;;11.40;99.90;;;;;;5094078;28;20889;-69
2022/02/18 12:27:38;;;;;;;1.30;0.80;;;11.50;99.90;;;;;;5094113;28;20413;-69
2022/02/18 12:30:36;;;;;;;2.50;0.90;;;11.50;99.90;;;;;;5093697;28;20504;-68
2022/02/18 12:33:03;;;;;;;2.55;0.80;;;11.40;99.90;;;;;;5094041;28;20417;-69
2022/02/18 12:35:33;;;;;;;2.22;0.80;;;11.40;99.90;;;;;;5094381;28;20410;-67
2022/02/18 12:38:05;;;;;;;1.05;0.75;;;11.50;99.90;;;;;;5093831;28;20474;-69
2022/02/18 12:40:35;;;;;;;1.30;0.80;;;11.60;99.90;;;;;;5093860;28;20465;-68
2022/02/18 12:43:05;;;;;;;1.70;0.70;;;11.70;99.90;;;;;;5093376;28;20577;-69
2022/02/18 12:45:37;;;;;;;2.20;0.70;;;11.70;91.40;;;;;;5093889;28;20457;-68
2022/02/18 12:48:04;;;;;;;2.17;0.77;;;11.80;69.20;;;;;;5093644;28;20501;-67
2022/02/18 12:50:33;;;;;;;1.05;0.70;;;11.90;44.60;;;;;;5093173;28;20417;-66
2022/02/18 12:53:02;;;;;;;1.45;0.85;;;12.00;25.50;;;;;;5094065;28;20450;-67
2022/02/18 12:55:31;;;;;;;0.70;0.60;;;12.10;10.30;;;;;;5093498;28;20454;-68